Time;durP1;ratioP1;P1;durP2;ratioP2;P2;SDS_P1;SDS_P2;PMS_P1;PMS_P2;Temp;Humidity;BMP_temperature;BMP_pressure;BME280_temperature;BME280_humidity;BME280_pressure;Samples;Min_cycle;Max_cycle;Signal;HPM_P1;HPM_P2
2024/02/02 00:00:45;;;;;;;;;35.25;33.50;;;;;;;;5078268;28;45253;-77
2024/02/02 00:03:11;;;;;;;;;42.00;37.00;;;;;;;;5079050;27;45269;-77
2024/02/02 00:05:36;;;;;;;;;45.00;40.00;;;;;;;;5059475;28;45461;-77
2024/02/02 00:08:01;;;;;;;;;52.00;42.00;;;;;;;;5059064;28;46190;-77
2024/02/02 00:10:26;;;;;;;;;47.75;40.00;;;;;;;;5059620;28;45337;-76
2024/02/02 00:12:52;;;;;;;;;54.00;45.25;;;;;;;;5059125;28;45339;-77
2024/02/02 00:15:18;;;;;;;;;58.00;47.75;;;;;;;;5059342;28;45325;-77
2024/02/02 00:17:43;;;;;;;;;58.00;48.25;;;;;;;;5057904;28;48164;-77
2024/02/02 00:20:10;;;;;;;;;57.25;46.50;;;;;;;;5059352;28;45224;-77
2024/02/02 00:22:35;;;;;;;;;63.00;50.00;;;;;;;;5058071;28;45282;-77
2024/02/02 00:25:00;;;;;;;;;64.00;51.25;;;;;;;;5058634;28;45330;-77
2024/02/02 00:27:25;;;;;;;;;59.75;48.00;;;;;;;;5059008;28;46141;-77
2024/02/02 00:29:50;;;;;;;;;58.00;49.75;;;;;;;;5059362;28;45353;-77
2024/02/02 00:32:16;;;;;;;;;46.50;39.50;;;;;;;;5059475;28;45322;-76
2024/02/02 00:34:41;;;;;;;;;52.75;43.25;;;;;;;;5059069;28;45204;-77
2024/02/02 00:37:07;;;;;;;;;53.25;44.00;;;;;;;;5059250;28;45280;-77
2024/02/02 00:39:32;;;;;;;;;50.75;40.25;;;;;;;;5057795;28;45350;-77
2024/02/02 00:41:57;;;;;;;;;50.25;41.50;;;;;;;;5057642;28;45503;-77
2024/02/02 00:44:22;;;;;;;;;50.50;42.75;;;;;;;;5059122;28;45499;-77
2024/02/02 00:46:48;;;;;;;;;47.50;40.75;;;;;;;;5059050;28;45370;-77
2024/02/02 00:49:13;;;;;;;;;47.25;39.25;;;;;;;;5058829;28;45507;-77
2024/02/02 00:51:38;;;;;;;;;46.00;40.50;;;;;;;;5057720;28;45691;-77
2024/02/02 00:54:03;;;;;;;;;52.75;43.50;;;;;;;;5058892;28;45515;-77
2024/02/02 00:56:28;;;;;;;;;54.25;45.00;;;;;;;;5057952;28;47166;-77
2024/02/02 00:58:54;;;;;;;;;51.50;43.25;;;;;;;;5078893;27;45487;-77
2024/02/02 01:01:19;;;;;;;;;52.00;41.50;;;;;;;;5079355;27;45244;-76
2024/02/02 01:03:44;;;;;;;;;50.75;42.00;;;;;;;;5078859;27;45571;-77
2024/02/02 01:06:09;;;;;;;;;37.75;36.25;;;;;;;;5078293;28;47195;-77
2024/02/02 01:08:34;;;;;;;;;34.50;33.75;;;;;;;;5083109;27;45294;-77
2024/02/02 01:10:59;;;;;;;;;42.75;39.00;;;;;;;;5082917;27;45457;-77
2024/02/02 01:13:25;;;;;;;;;41.50;37.75;;;;;;;;5082462;27;45450;-77
2024/02/02 01:15:50;;;;;;;;;48.00;41.25;;;;;;;;5082452;27;45311;-77
2024/02/02 01:18:16;;;;;;;;;48.75;41.50;;;;;;;;5082260;27;45273;-77
2024/02/02 01:20:42;;;;;;;;;43.50;37.75;;;;;;;;5082358;27;45342;-77
2024/02/02 01:23:07;;;;;;;;;47.50;41.25;;;;;;;;5081933;27;45381;-77
2024/02/02 01:25:33;;;;;;;;;44.50;38.00;;;;;;;;5081967;28;45358;-77
2024/02/02 01:27:58;;;;;;;;;47.25;38.25;;;;;;;;5082003;28;45361;-77
2024/02/02 01:30:23;;;;;;;;;47.75;40.00;;;;;;;;5082384;28;45294;-77
2024/02/02 01:32:49;;;;;;;;;43.00;38.25;;;;;;;;5080718;28;47128;-77
2024/02/02 01:35:14;;;;;;;;;39.50;35.25;;;;;;;;5079757;27;45878;-77
2024/02/02 01:37:39;;;;;;;;;36.25;32.50;;;;;;;;5060553;28;45726;-77
2024/02/02 01:40:05;;;;;;;;;37.25;35.00;;;;;;;;5062163;28;45303;-77
2024/02/02 01:42:30;;;;;;;;;37.50;35.00;;;;;;;;5061381;28;45393;-77
2024/02/02 01:44:55;;;;;;;;;36.00;35.00;;;;;;;;5060258;28;47240;-77
2024/02/02 01:47:20;;;;;;;;;32.50;32.50;;;;;;;;5061884;28;45213;-77
2024/02/02 01:49:46;;;;;;;;;33.25;29.25;;;;;;;;5061586;28;45290;-76
2024/02/02 01:52:11;;;;;;;;;36.00;35.00;;;;;;;;5061289;28;45208;-77
2024/02/02 01:54:36;;;;;;;;;30.50;30.25;;;;;;;;5059993;28;47195;-76
2024/02/02 01:57:02;;;;;;;;;34.75;31.00;;;;;;;;5066287;28;45237;-77
2024/02/02 01:59:27;;;;;;;;;33.50;31.00;;;;;;;;5080639;28;45225;-77
2024/02/02 02:01:52;;;;;;;;;35.25;34.00;;;;;;;;5080212;28;47270;-77
2024/02/02 02:04:17;;;;;;;;;37.25;35.00;;;;;;;;5081395;28;45353;-77
2024/02/02 02:06:42;;;;;;;;;41.00;36.75;;;;;;;;5081855;28;45185;-76
2024/02/02 02:09:10;;;;;;;;;40.75;37.25;;;;;;;;5080889;27;45235;-77
2024/02/02 02:11:37;;;;;;;;;47.25;37.25;;;;;;;;5062483;28;46216;-77
2024/02/02 02:14:02;;;;;;;;;42.25;39.00;;;;;;;;5060452;28;45309;-77
2024/02/02 02:16:27;;;;;;;;;43.00;37.75;;;;;;;;5059817;28;45420;-77
2024/02/02 02:18:52;;;;;;;;;38.50;33.25;;;;;;;;5060326;28;45326;-77
2024/02/02 02:21:22;;;;;;;;;40.25;37.00;;;;;;;;5061105;28;45339;-77
2024/02/02 02:23:47;;;;;;;;;38.50;33.25;;;;;;;;5060646;28;45923;-77
2024/02/02 02:26:13;;;;;;;;;37.00;34.75;;;;;;;;5061108;28;45253;-77
2024/02/02 02:28:38;;;;;;;;;44.00;38.25;;;;;;;;5060978;28;45130;-77
2024/02/02 02:31:04;;;;;;;;;34.75;34.00;;;;;;;;5061008;28;45236;-77
2024/02/02 02:33:29;;;;;;;;;32.75;31.75;;;;;;;;5060807;28;46379;-77
2024/02/02 02:35:55;;;;;;;;;40.25;37.00;;;;;;;;5059601;28;45350;-77
2024/02/02 02:38:20;;;;;;;;;34.25;30.25;;;;;;;;5061348;28;45223;-77
2024/02/02 02:40:45;;;;;;;;;29.67;29.67;;;;;;;;5061069;28;45303;-78
2024/02/02 02:43:10;;;;;;;;;29.00;26.33;;;;;;;;5059394;28;48470;-77
2024/02/02 02:45:35;;;;;;;;;30.00;23.67;;;;;;;;5059282;28;45373;-77
2024/02/02 02:48:00;;;;;;;;;27.00;25.00;;;;;;;;5060876;28;45592;-77
2024/02/02 02:50:26;;;;;;;;;28.00;24.00;;;;;;;;5060434;28;45458;-77
2024/02/02 02:52:51;;;;;;;;;27.33;27.33;;;;;;;;5060611;28;45389;-77
2024/02/02 02:55:16;;;;;;;;;26.67;23.33;;;;;;;;5060528;28;45346;-77
2024/02/02 02:57:41;;;;;;;;;22.33;22.33;;;;;;;;5071214;28;45341;-77
2024/02/02 03:00:09;;;;;;;;;21.00;21.00;;;;;;;;5079555;28;47037;-77
2024/02/02 03:02:34;;;;;;;;;24.33;22.67;;;;;;;;5080844;27;46696;-77
2024/02/02 03:04:59;;;;;;;;;23.33;23.00;;;;;;;;5080502;27;45403;-77
2024/02/02 03:07:24;;;;;;;;;22.00;21.33;;;;;;;;5081176;27;45311;-77
2024/02/02 03:09:50;;;;;;;;;21.00;20.33;;;;;;;;5080139;27;45652;-77
2024/02/02 03:12:15;;;;;;;;;23.00;20.33;;;;;;;;5079983;28;45328;-77
2024/02/02 03:14:40;;;;;;;;;24.33;23.00;;;;;;;;5079357;28;45926;-77
2024/02/02 03:17:05;;;;;;;;;21.33;19.67;;;;;;;;5080887;27;45252;-77
2024/02/02 03:19:30;;;;;;;;;21.00;21.00;;;;;;;;5080602;27;45319;-77
2024/02/02 03:21:55;;;;;;;;;22.67;22.67;;;;;;;;5080554;27;45568;-76
2024/02/02 03:24:21;;;;;;;;;24.67;21.33;;;;;;;;5080322;27;45350;-77
2024/02/02 03:26:46;;;;;;;;;21.00;20.00;;;;;;;;5080610;27;45327;-77
2024/02/02 03:29:11;;;;;;;;;17.67;16.00;;;;;;;;5080319;27;45330;-77
2024/02/02 03:31:36;;;;;;;;;25.33;21.67;;;;;;;;5079321;27;46126;-77
2024/02/02 03:34:01;;;;;;;;;26.33;25.67;;;;;;;;5080203;27;45287;-77
2024/02/02 03:36:27;;;;;;;;;28.00;27.25;;;;;;;;5080403;28;45394;-79
2024/02/02 03:38:52;;;;;;;;;24.25;22.50;;;;;;;;5079520;28;46307;-78
2024/02/02 03:41:17;;;;;;;;;24.67;22.67;;;;;;;;5080244;27;46195;-77
2024/02/02 03:43:42;;;;;;;;;23.33;23.33;;;;;;;;5078592;28;45311;-77
2024/02/02 03:46:07;;;;;;;;;32.75;29.75;;;;;;;;5080404;27;45401;-77
2024/02/02 03:48:33;;;;;;;;;9.33;9.33;;;;;;;;5078300;27;45248;-77
2024/02/02 03:50:58;;;;;;;;;22.25;19.25;;;;;;;;5058015;28;48072;-77
2024/02/02 03:53:23;;;;;;;;;22.00;19.33;;;;;;;;5059625;28;45340;-77
2024/02/02 03:55:48;;;;;;;;;27.00;24.33;;;;;;;;5057387;28;45582;-77
2024/02/02 03:58:13;;;;;;;;;19.25;19.00;;;;;;;;5074513;28;45486;-76
2024/02/02 04:00:39;;;;;;;;;31.00;30.50;;;;;;;;5080220;27;46509;-76
2024/02/02 04:03:04;;;;;;;;;29.67;29.33;;;;;;;;5080045;27;45297;-77
2024/02/02 04:05:29;;;;;;;;;29.25;27.25;;;;;;;;5079901;27;45712;-76
2024/02/02 04:07:54;;;;;;;;;29.50;28.75;;;;;;;;5079998;27;45435;-77
2024/02/02 04:10:20;;;;;;;;;39.25;33.25;;;;;;;;5079826;27;45443;-77
2024/02/02 04:12:45;;;;;;;;;33.25;32.00;;;;;;;;5078267;28;46256;-77
2024/02/02 04:15:10;;;;;;;;;33.00;27.75;;;;;;;;5080203;27;45357;-77
2024/02/02 04:17:35;;;;;;;;;34.67;32.00;;;;;;;;5078205;28;45976;-76
2024/02/02 04:20:01;;;;;;;;;27.00;25.50;;;;;;;;5079606;28;45595;-76
2024/02/02 04:22:26;;;;;;;;;34.00;31.00;;;;;;;;5079809;28;45278;-77
2024/02/02 04:24:52;;;;;;;;;31.50;30.00;;;;;;;;5077918;28;45598;-77
2024/02/02 04:27:17;;;;;;;;;35.50;30.50;;;;;;;;5079438;27;45456;-76
2024/02/02 04:29:43;;;;;;;;;29.50;28.00;;;;;;;;5079602;27;46149;-77
2024/02/02 04:32:08;;;;;;;;;35.25;32.00;;;;;;;;5079634;27;45247;-77
2024/02/02 04:34:33;;;;;;;;;37.50;32.75;;;;;;;;5079440;27;45397;-77
2024/02/02 04:36:58;;;;;;;;;34.00;30.00;;;;;;;;5079687;27;45644;-77
2024/02/02 04:39:23;;;;;;;;;30.75;29.50;;;;;;;;5078424;28;47009;-77
2024/02/02 04:41:49;;;;;;;;;33.00;31.33;;;;;;;;5080825;27;45282;-76
2024/02/02 04:44:14;;;;;;;;;31.00;31.00;;;;;;;;5083107;27;45172;-77
2024/02/02 04:46:39;;;;;;;;;32.00;27.00;;;;;;;;5083114;27;45254;-76
2024/02/02 04:49:04;;;;;;;;;30.75;30.25;;;;;;;;5082900;27;45188;-77
2024/02/02 04:51:29;;;;;;;;;34.50;34.50;;;;;;;;5082807;28;45227;-77
2024/02/02 04:53:55;;;;;;;;;28.00;27.50;;;;;;;;5082963;27;45735;-77
2024/02/02 04:56:20;;;;;;;;;37.00;31.25;;;;;;;;5081522;28;47023;-77
2024/02/02 04:58:45;;;;;;;;;31.50;30.25;;;;;;;;5062763;27;45248;-77
2024/02/02 05:01:10;;;;;;;;;32.50;29.50;;;;;;;;5062376;28;45221;-77
2024/02/02 05:03:36;;;;;;;;;27.25;25.50;;;;;;;;5062531;28;45285;-77
2024/02/02 05:06:01;;;;;;;;;37.50;31.25;;;;;;;;5062560;28;45165;-77
2024/02/02 05:08:26;;;;;;;;;32.25;31.00;;;;;;;;5062435;28;46132;-77
2024/02/02 05:10:51;;;;;;;;;31.75;31.75;;;;;;;;5062134;28;45216;-77
2024/02/02 05:13:17;;;;;;;;;29.00;26.50;;;;;;;;5062214;28;45494;-76
2024/02/02 05:15:42;;;;;;;;;32.75;31.75;;;;;;;;5060621;28;47017;-77
2024/02/02 05:18:07;;;;;;;;;37.00;31.25;;;;;;;;5062007;28;45269;-77
2024/02/02 05:20:32;;;;;;;;;10.75;7.00;;;;;;;;5062144;28;45612;-77
2024/02/02 05:22:58;;;;;;;;;31.00;29.50;;;;;;;;5062124;28;45223;-76
2024/02/02 05:25:23;;;;;;;;;34.25;31.25;;;;;;;;5059796;28;47107;-76
2024/02/02 05:27:48;;;;;;;;;32.00;25.75;;;;;;;;5062064;28;45365;-76
2024/02/02 05:30:13;;;;;;;;;39.75;34.75;;;;;;;;5061976;28;45274;-77
2024/02/02 05:32:38;;;;;;;;;34.25;33.00;;;;;;;;5060926;28;45343;-77
2024/02/02 05:35:04;;;;;;;;;38.67;33.33;;;;;;;;5061900;28;45418;-77
2024/02/02 05:37:29;;;;;;;;;13.25;13.00;;;;;;;;5061707;28;45350;-76
2024/02/02 05:39:55;;;;;;;;;34.50;29.75;;;;;;;;5060649;28;45418;-76
2024/02/02 05:42:20;;;;;;;;;35.25;32.25;;;;;;;;5062080;28;45437;-77
2024/02/02 05:44:45;;;;;;;;;34.75;32.50;;;;;;;;5061748;28;45559;-77
2024/02/02 05:47:10;;;;;;;;;30.75;30.25;;;;;;;;5060381;28;48028;-76
2024/02/02 05:49:35;;;;;;;;;34.50;34.50;;;;;;;;5061603;28;45405;-76
2024/02/02 05:52:01;;;;;;;;;30.25;26.00;;;;;;;;5061772;28;45430;-77
2024/02/02 05:54:26;;;;;;;;;32.00;29.50;;;;;;;;5060677;28;45489;-77
2024/02/02 05:56:51;;;;;;;;;33.50;29.50;;;;;;;;5064766;28;45389;-76
2024/02/02 05:59:16;;;;;;;;;37.25;33.75;;;;;;;;5081873;27;45392;-77
2024/02/02 06:01:41;;;;;;;;;35.25;33.50;;;;;;;;5082233;27;45295;-77
2024/02/02 06:04:07;;;;;;;;;29.75;26.75;;;;;;;;5081523;27;45301;-76
2024/02/02 06:06:32;;;;;;;;;36.50;31.75;;;;;;;;5081833;27;46330;-77
2024/02/02 06:08:57;;;;;;;;;24.00;24.00;;;;;;;;5081683;27;45380;-76
2024/02/02 06:11:22;;;;;;;;;36.25;31.75;;;;;;;;5068023;27;45455;-77
2024/02/02 06:13:47;;;;;;;;;35.50;32.75;;;;;;;;5060822;28;45354;-77
2024/02/02 06:16:13;;;;;;;;;25.25;24.25;;;;;;;;5059576;28;47221;-77
2024/02/02 06:18:38;;;;;;;;;34.00;32.75;;;;;;;;5058750;28;45463;-76
2024/02/02 06:21:03;;;;;;;;;24.50;24.25;;;;;;;;5060444;28;45363;-76
2024/02/02 06:23:28;;;;;;;;;34.75;30.50;;;;;;;;5061200;28;45541;-77
2024/02/02 06:25:54;;;;;;;;;30.50;30.00;;;;;;;;5061030;28;45479;-76
2024/02/02 06:28:19;;;;;;;;;33.25;29.50;;;;;;;;5060875;28;45287;-76
2024/02/02 06:30:48;;;;;;;;;24.00;21.00;;;;;;;;5061233;28;45488;-77
2024/02/02 06:33:13;;;;;;;;;22.75;20.25;;;;;;;;5059528;28;46265;-77
2024/02/02 06:35:38;;;;;;;;;25.67;23.33;;;;;;;;5059925;28;47421;-76
2024/02/02 06:38:03;;;;;;;;;21.00;18.67;;;;;;;;5059224;28;45673;-76
2024/02/02 06:40:28;;;;;;;;;29.00;26.67;;;;;;;;5060741;28;45579;-76
2024/02/02 06:42:54;;;;;;;;;29.67;26.33;;;;;;;;5059335;28;47184;-76
2024/02/02 06:45:21;;;;;;;;;27.67;22.67;;;;;;;;5060559;28;45483;-76
2024/02/02 06:47:46;;;;;;;;;28.00;23.00;;;;;;;;5058820;28;45276;-76
2024/02/02 06:50:11;;;;;;;;;20.33;20.00;;;;;;;;5060385;28;45421;-76
2024/02/02 06:52:36;;;;;;;;;20.00;18.67;;;;;;;;5060455;28;45562;-77
2024/02/02 06:55:02;;;;;;;;;28.00;25.75;;;;;;;;5060184;28;45580;-75
2024/02/02 06:57:31;;;;;;;;;25.67;25.00;;;;;;;;5067556;28;45310;-77
2024/02/02 06:59:57;;;;;;;;;22.00;22.00;;;;;;;;5079663;28;45181;-76
2024/02/02 07:02:25;;;;;;;;;16.33;16.33;;;;;;;;5080767;27;45434;-76
2024/02/02 07:04:51;;;;;;;;;19.67;19.67;;;;;;;;5080278;27;45401;-76
2024/02/02 07:07:16;;;;;;;;;25.00;24.33;;;;;;;;5080653;27;45320;-76
2024/02/02 07:09:48;;;;;;;;;30.75;26.50;;;;;;;;5080775;27;45289;-76
2024/02/02 07:12:25;;;;;;;;;29.00;27.50;;;;;;;;5080474;27;45290;-76
2024/02/02 07:14:50;;;;;;;;;27.75;24.25;;;;;;;;5078971;28;47015;-76
2024/02/02 07:17:24;;;;;;;;;24.67;21.00;;;;;;;;5080158;28;45359;-77
2024/02/02 07:19:50;;;;;;;;;20.33;20.00;;;;;;;;5080474;27;45332;-78
2024/02/02 07:22:31;;;;;;;;;22.00;21.33;;;;;;;;5080268;28;45430;-77
2024/02/02 07:24:56;;;;;;;;;18.67;16.67;;;;;;;;5078370;28;47339;-77
2024/02/02 07:27:30;;;;;;;;;29.00;22.00;;;;;;;;5080001;28;45203;-77
2024/02/02 07:29:56;;;;;;;;;19.67;17.33;;;;;;;;5079211;28;45310;-77
2024/02/02 07:32:21;;;;;;;;;27.00;25.00;;;;;;;;5069933;28;47013;-75
2024/02/02 07:34:48;;;;;;;;;26.33;25.00;;;;;;;;5061438;28;45302;-77
2024/02/02 07:37:37;;;;;;;;;16.33;16.33;;;;;;;;5058667;28;45982;-75
2024/02/02 07:40:34;;;;;;;;;20.33;20.00;;;;;;;;5049077;28;45299;-75
2024/02/02 07:43:00;;;;;;;;;43.50;36.00;;;;;;;;5058723;28;46374;-80
2024/02/02 07:45:25;;;;;;;;;17.67;17.67;;;;;;;;5059306;28;45342;-80
2024/02/02 07:47:51;;;;;;;;;21.33;19.67;;;;;;;;5059986;28;45274;-80
2024/02/02 07:50:17;;;;;;;;;20.00;19.33;;;;;;;;5060373;28;45266;-80
2024/02/02 07:52:42;;;;;;;;;18.67;17.00;;;;;;;;5059898;28;45251;-81
2024/02/02 07:55:07;;;;;;;;;20.33;18.67;;;;;;;;5059582;28;45382;-80
2024/02/02 07:57:32;;;;;;;;;15.00;14.33;;;;;;;;5069015;28;45280;-80
2024/02/02 07:59:57;;;;;;;;;23.00;21.67;;;;;;;;5080547;27;45267;-80
2024/02/02 08:02:24;;;;;;;;;26.67;21.00;;;;;;;;5080390;27;45309;-80
2024/02/02 08:04:49;;;;;;;;;21.33;19.67;;;;;;;;5078514;27;45507;-80
2024/02/02 08:07:14;;;;;;;;;19.00;16.33;;;;;;;;5078709;27;45750;-79
2024/02/02 08:09:39;;;;;;;;;16.67;14.67;;;;;;;;5079063;28;45355;-80
2024/02/02 08:12:05;;;;;;;;;15.67;15.00;;;;;;;;5078713;28;46009;-82
2024/02/02 08:14:32;;;;;;;;;16.00;15.00;;;;;;;;5064374;28;48004;-80
2024/02/02 08:16:58;;;;;;;;;21.00;17.33;;;;;;;;5045956;28;46360;-80
2024/02/02 08:19:23;;;;;;;;;22.33;17.33;;;;;;;;5051352;28;45303;-79
2024/02/02 08:21:48;;;;;;;;;13.33;12.33;;;;;;;;5050721;28;45394;-79
2024/02/02 08:24:13;;;;;;;;;16.67;16.33;;;;;;;;5046791;28;47145;-79
2024/02/02 08:26:38;;;;;;;;;17.67;15.00;;;;;;;;5046161;28;45516;-78
2024/02/02 08:29:04;;;;;;;;;13.00;11.00;;;;;;;;5049500;28;45819;-79
2024/02/02 08:31:29;;;;;;;;;15.33;15.33;;;;;;;;5047964;28;46718;-81
2024/02/02 08:33:54;;;;;;;;;12.67;11.67;;;;;;;;5049605;28;48189;-82
2024/02/02 08:36:20;;;;;;;;;21.00;16.33;;;;;;;;5050161;28;45452;-85
2024/02/02 08:38:45;;;;;;;;;16.33;14.67;;;;;;;;5048429;28;46380;-81
2024/02/02 08:41:10;;;;;;;;;21.00;16.00;;;;;;;;5049217;28;45545;-82
2024/02/02 08:43:36;;;;;;;;;21.00;21.00;;;;;;;;5051544;28;45585;-82
2024/02/02 08:46:09;;;;;;;;;17.33;17.33;;;;;;;;5051648;28;45596;-82
2024/02/02 08:48:39;;;;;;;;;23.67;20.00;;;;;;;;5052634;28;46423;-80
2024/02/02 08:51:27;;;;;;;;;26.00;22.33;;;;;;;;5051507;28;46210;-81
2024/02/02 08:54:10;;;;;;;;;22.00;21.33;;;;;;;;5039443;28;46382;-81
2024/02/02 08:56:36;;;;;;;;;30.00;22.67;;;;;;;;5052014;28;45907;-83
2024/02/02 08:59:07;;;;;;;;;21.00;18.00;;;;;;;;5047930;28;46186;-80
2024/02/02 09:01:33;;;;;;;;;25.00;22.67;;;;;;;;5051037;28;46265;-80
2024/02/02 09:03:58;;;;;;;;;23.00;23.00;;;;;;;;5048273;28;47055;-83
2024/02/02 09:06:23;;;;;;;;;25.00;23.00;;;;;;;;5048724;28;45559;-81
2024/02/02 09:08:49;;;;;;;;;28.00;25.50;;;;;;;;5049894;28;45488;-79
2024/02/02 09:11:19;;;;;;;;;21.00;14.33;;;;;;;;5049283;28;45931;-79
2024/02/02 09:13:44;;;;;;;;;22.67;18.00;;;;;;;;5046408;28;47561;-78
2024/02/02 09:16:14;;;;;;;;;30.33;26.00;;;;;;;;5048577;28;45481;-77
2024/02/02 09:18:44;;;;;;;;;30.67;25.33;;;;;;;;5047806;28;45855;-78
2024/02/02 09:21:12;;;;;;;;;30.33;24.67;;;;;;;;5047018;28;45817;-78
2024/02/02 09:23:42;;;;;;;;;34.33;30.33;;;;;;;;5049920;28;45800;-78
2024/02/02 09:26:16;;;;;;;;;30.67;30.33;;;;;;;;5049741;28;45505;-79
2024/02/02 09:28:42;;;;;;;;;33.00;31.00;;;;;;;;5044494;28;45837;-78
2024/02/02 09:31:10;;;;;;;;;23.67;22.00;;;;;;;;5051694;28;46268;-79
2024/02/02 09:33:52;;;;;;;;;36.75;34.00;;;;;;;;5051884;28;45477;-80
2024/02/02 09:36:18;;;;;;;;;24.33;21.33;;;;;;;;5054054;28;46044;-80
2024/02/02 09:38:57;;;;;;;;;37.33;35.00;;;;;;;;5048449;28;45526;-79
2024/02/02 09:41:45;;;;;;;;;29.67;29.33;;;;;;;;5051406;28;46895;-83
2024/02/02 09:44:29;;;;;;;;;41.33;30.00;;;;;;;;5051942;28;46515;-79
2024/02/02 09:46:57;;;;;;;;;30.33;26.67;;;;;;;;5050192;28;45540;-77
2024/02/02 09:49:26;;;;;;;;;32.00;28.67;;;;;;;;5052273;28;46270;-78
2024/02/02 09:52:01;;;;;;;;;33.00;28.67;;;;;;;;5051182;28;45745;-77
2024/02/02 09:54:43;;;;;;;;;32.00;29.67;;;;;;;;5050657;28;47643;-79
2024/02/02 09:57:14;;;;;;;;;31.00;29.00;;;;;;;;5050023;28;45889;-77
2024/02/02 09:59:52;;;;;;;;;23.33;19.33;;;;;;;;5052867;28;45791;-81
2024/02/02 10:02:23;;;;;;;;;29.67;24.00;;;;;;;;5053053;28;45775;-80
2024/02/02 10:05:00;;;;;;;;;33.33;28.67;;;;;;;;5050780;28;47271;-78
2024/02/02 10:07:54;;;;;;;;;34.67;28.33;;;;;;;;5051987;28;45683;-77
2024/02/02 10:10:46;;;;;;;;;326.60;302.00;;;;;;;;5052402;28;44877;-78
2024/02/02 10:23:27;;;;;;;;;;;;;;;;;;;;;
2024/02/02 10:26:09;;;;;;;;;107.33;104.67;;;;;;;;5018298;28;45548;-79
2024/02/02 10:31:56;;;;;;;;;31.33;29.33;;;;;;;;5038073;28;45592;-80
2024/02/02 10:34:30;;;;;;;;;28.33;26.00;;;;;;;;4998948;28;45456;-79
2024/02/02 10:37:09;;;;;;;;;26.33;23.67;;;;;;;;5050824;28;47431;-81
2024/02/02 10:39:51;;;;;;;;;29.00;25.33;;;;;;;;5040422;28;46149;-79
2024/02/02 10:42:19;;;;;;;;;25.67;24.00;;;;;;;;5038205;28;45446;-80
2024/02/02 10:45:04;;;;;;;;;27.33;26.00;;;;;;;;5039328;28;45289;-79
2024/02/02 10:47:38;;;;;;;;;27.00;21.33;;;;;;;;5040754;28;45328;-78
2024/02/02 10:50:15;;;;;;;;;23.00;20.67;;;;;;;;5057370;28;47207;-81
2024/02/02 10:52:41;;;;;;;;;26.67;24.00;;;;;;;;5061041;28;45461;-80
2024/02/02 10:55:06;;;;;;;;;29.00;27.00;;;;;;;;5059783;28;45251;-81
2024/02/02 10:57:36;;;;;;;;;22.33;21.33;;;;;;;;5068436;28;47071;-79
2024/02/02 11:00:10;;;;;;;;;26.00;22.33;;;;;;;;5080966;27;46354;-80
2024/02/02 11:02:35;;;;;;;;;24.00;23.33;;;;;;;;5079061;28;45279;-80
2024/02/02 11:05:14;;;;;;;;;19.75;19.25;;;;;;;;5079379;28;45405;-80
2024/02/02 11:07:42;;;;;;;;;23.67;23.67;;;;;;;;5080781;27;45210;-79
2024/02/02 11:10:10;;;;;;;;;33.33;28.67;;;;;;;;5080607;27;45424;-80
2024/02/02 11:12:39;;;;;;;;;27.67;21.33;;;;;;;;5080757;27;45335;-85
2024/02/02 11:15:15;;;;;;;;;23.00;21.33;;;;;;;;5080761;28;45422;-78
2024/02/02 11:18:04;;;;;;;;;28.33;25.67;;;;;;;;5068857;27;45295;-80
2024/02/02 11:20:49;;;;;;;;;30.00;27.00;;;;;;;;5047565;28;46335;-81
2024/02/02 11:23:24;;;;;;;;;28.33;25.33;;;;;;;;5059951;28;45366;-78
2024/02/02 11:25:52;;;;;;;;;30.67;29.67;;;;;;;;5057871;28;45449;-77
2024/02/02 11:28:22;;;;;;;;;23.33;21.33;;;;;;;;5059274;28;45559;-77
2024/02/02 11:31:06;;;;;;;;;17.00;14.67;;;;;;;;5044048;28;47155;-79
2024/02/02 11:33:42;;;;;;;;;25.00;21.67;;;;;;;;5039415;28;45280;-77
2024/02/02 11:36:22;;;;;;;;;21.67;19.67;;;;;;;;5049513;28;45262;-81
2024/02/02 11:38:56;;;;;;;;;22.33;21.00;;;;;;;;5059166;28;45354;-79
2024/02/02 11:41:25;;;;;;;;;25.00;24.33;;;;;;;;5058773;28;45544;-79
2024/02/02 11:43:52;;;;;;;;;31.00;30.33;;;;;;;;5056571;28;45444;-80
2024/02/02 11:46:21;;;;;;;;;31.67;29.00;;;;;;;;5056390;28;45948;-79
2024/02/02 11:48:49;;;;;;;;;26.33;23.33;;;;;;;;5057975;28;47149;-78
2024/02/02 11:51:15;;;;;;;;;24.67;20.67;;;;;;;;5056873;28;45625;-79
2024/02/02 11:53:46;;;;;;;;;19.00;17.33;;;;;;;;5059024;28;45720;-78
2024/02/02 11:56:19;;;;;;;;;21.67;20.33;;;;;;;;5057879;28;45398;-82
2024/02/02 11:58:46;;;;;;;;;20.33;19.33;;;;;;;;5064661;28;45398;-81
2024/02/02 12:01:23;;;;;;;;;24.67;21.00;;;;;;;;5058026;28;48100;-78
2024/02/02 12:04:12;;;;;;;;;26.33;24.33;;;;;;;;5058553;28;45473;-82
2024/02/02 12:06:44;;;;;;;;;24.67;23.33;;;;;;;;5048121;28;45442;-82
2024/02/02 12:09:15;;;;;;;;;26.67;24.00;;;;;;;;5043150;28;45747;-80
2024/02/02 12:11:44;;;;;;;;;24.33;22.33;;;;;;;;5054401;28;46975;-80
2024/02/02 12:14:23;;;;;;;;;27.67;25.67;;;;;;;;5053564;28;45370;-81
2024/02/02 12:16:50;;;;;;;;;18.33;16.33;;;;;;;;5054734;28;45419;-80
2024/02/02 12:19:15;;;;;;;;;25.00;21.00;;;;;;;;5062813;28;45500;-78
2024/02/02 12:21:41;;;;;;;;;22.00;20.67;;;;;;;;5058103;27;45424;-80
2024/02/02 12:24:06;;;;;;;;;28.67;27.00;;;;;;;;5055233;28;45408;-79
2024/02/02 12:26:32;;;;;;;;;22.00;22.00;;;;;;;;5057461;28;45330;-79
2024/02/02 12:28:57;;;;;;;;;23.67;22.33;;;;;;;;5057211;28;45427;-80
2024/02/02 12:31:22;;;;;;;;;23.67;21.00;;;;;;;;5055083;28;46290;-84
2024/02/02 12:33:47;;;;;;;;;19.00;18.33;;;;;;;;5053829;28;45300;-80
2024/02/02 12:36:12;;;;;;;;;18.00;17.00;;;;;;;;5050571;28;45331;-81
2024/02/02 12:38:38;;;;;;;;;26.33;24.00;;;;;;;;5050289;28;47249;-80
2024/02/02 12:41:03;;;;;;;;;26.33;22.67;;;;;;;;5055566;28;47210;-80
2024/02/02 12:43:28;;;;;;;;;20.67;20.67;;;;;;;;5057780;28;45378;-80
2024/02/02 12:45:54;;;;;;;;;21.33;19.00;;;;;;;;5056389;28;45278;-82
2024/02/02 12:48:20;;;;;;;;;20.67;20.67;;;;;;;;5056119;28;46001;-81
2024/02/02 12:50:45;;;;;;;;;26.33;25.00;;;;;;;;5055340;28;46504;-80
2024/02/02 12:53:10;;;;;;;;;20.67;19.67;;;;;;;;5056108;28;45338;-81
2024/02/02 12:55:36;;;;;;;;;26.67;22.67;;;;;;;;5055808;28;45370;-82
2024/02/02 12:58:01;;;;;;;;;25.00;23.33;;;;;;;;5070474;28;45326;-78
2024/02/02 13:00:27;;;;;;;;;26.00;24.33;;;;;;;;5070706;27;45442;-79
2024/02/02 13:02:52;;;;;;;;;26.33;24.00;;;;;;;;5056930;28;45322;-78
2024/02/02 13:05:18;;;;;;;;;21.00;21.00;;;;;;;;5058957;28;45522;-79
2024/02/02 13:07:51;;;;;;;;;25.67;21.67;;;;;;;;5059425;28;45509;-79
2024/02/02 13:10:34;;;;;;;;;23.33;23.33;;;;;;;;5061953;28;45462;-78
2024/02/02 13:13:08;;;;;;;;;24.00;23.67;;;;;;;;5052872;28;45472;-78
2024/02/02 13:15:34;;;;;;;;;28.67;24.67;;;;;;;;5056371;28;45785;-79
2024/02/02 13:18:02;;;;;;;;;24.33;24.00;;;;;;;;5058556;28;47415;-79
2024/02/02 13:20:30;;;;;;;;;26.67;23.00;;;;;;;;5060375;28;46590;-79
2024/02/02 13:22:59;;;;;;;;;26.00;25.00;;;;;;;;5061147;28;45460;-79
2024/02/02 13:25:55;;;;;;;;;25.33;21.67;;;;;;;;5062567;28;45594;-78
2024/02/02 13:28:21;;;;;;;;;23.67;22.00;;;;;;;;5078487;28;45490;-80
2024/02/02 13:30:53;;;;;;;;;19.33;19.33;;;;;;;;5069523;27;45449;-81
2024/02/02 13:33:20;;;;;;;;;20.00;16.00;;;;;;;;5061338;28;45665;-82
2024/02/02 13:35:46;;;;;;;;;22.67;22.33;;;;;;;;5060921;28;45216;-81
2024/02/02 13:38:12;;;;;;;;;22.00;19.67;;;;;;;;5060052;28;47066;-80
2024/02/02 13:40:37;;;;;;;;;20.00;18.00;;;;;;;;5052136;28;47058;-83
2024/02/02 13:43:06;;;;;;;;;21.33;19.00;;;;;;;;5052581;28;45410;-81
2024/02/02 13:45:33;;;;;;;;;21.00;20.00;;;;;;;;5060051;28;45364;-81
2024/02/02 13:48:11;;;;;;;;;18.33;18.33;;;;;;;;5060020;28;45788;-84
2024/02/02 13:50:59;;;;;;;;;20.33;19.00;;;;;;;;5053465;28;47537;-83
2024/02/02 13:53:27;;;;;;;;;20.00;17.00;;;;;;;;5061131;28;45750;-83
2024/02/02 13:55:59;;;;;;;;;19.67;18.33;;;;;;;;5059140;28;45508;-82
2024/02/02 13:58:24;;;;;;;;;17.00;16.67;;;;;;;;5060566;28;45520;-83
2024/02/02 14:00:49;;;;;;;;;17.00;17.00;;;;;;;;5058344;28;47123;-83
2024/02/02 14:03:17;;;;;;;;;19.33;17.00;;;;;;;;5059509;28;45427;-81
2024/02/02 14:05:42;;;;;;;;;17.33;17.33;;;;;;;;5057994;28;45449;-84
2024/02/02 14:08:07;;;;;;;;;13.67;13.33;;;;;;;;5056676;28;46301;-81
2024/02/02 14:10:45;;;;;;;;;13.00;13.00;;;;;;;;5059246;28;45528;-80
2024/02/02 14:13:21;;;;;;;;;20.67;19.33;;;;;;;;5051988;28;45240;-82
2024/02/02 14:15:48;;;;;;;;;19.00;19.00;;;;;;;;5054654;28;45501;-83
2024/02/02 14:18:15;;;;;;;;;22.33;21.67;;;;;;;;5058877;28;45976;-83
2024/02/02 14:20:40;;;;;;;;;14.33;14.33;;;;;;;;5059088;28;48302;-80
2024/02/02 14:23:12;;;;;;;;;13.67;13.33;;;;;;;;5058982;28;45304;-82
2024/02/02 14:25:38;;;;;;;;;17.67;17.00;;;;;;;;5058991;28;45310;-82
2024/02/02 14:28:14;;;;;;;;;16.33;15.67;;;;;;;;5057096;28;46367;-83
2024/02/02 14:30:39;;;;;;;;;17.00;16.00;;;;;;;;5058689;28;48375;-84
2024/02/02 14:33:04;;;;;;;;;19.00;18.33;;;;;;;;5059100;28;45312;-83
2024/02/02 14:35:29;;;;;;;;;11.75;11.75;;;;;;;;5060761;28;45291;-83